createdAt,value
2023-06-18T00:02:13.956Z,99091.48
2023-06-18T00:04:41.679Z,99091.13
2023-06-18T00:07:09.988Z,99093.04
2023-06-18T00:09:38.076Z,99091.77
2023-06-18T00:12:06.508Z,99094.17
2023-06-18T00:14:34.784Z,99100.70
2023-06-18T00:17:02.720Z,99100.45
2023-06-18T00:19:31.493Z,99096.23
2023-06-18T00:22:00.985Z,99099.50
2023-06-18T00:24:29.059Z,99095.85
2023-06-18T00:26:57.022Z,99098.04
2023-06-18T00:29:25.077Z,99100.22
2023-06-18T00:31:53.058Z,99099.90
2023-06-18T00:34:22.035Z,99108.08
2023-06-18T00:36:52.091Z,99106.55
2023-06-18T00:39:20.226Z,99112.64
2023-06-18T00:41:48.335Z,99113.95
2023-06-18T00:44:16.458Z,99116.17
2023-06-18T00:46:48.120Z,99111.34
2023-06-18T00:49:20.489Z,99110.38
2023-06-18T00:51:49.215Z,99107.28
2023-06-18T00:54:18.575Z,99105.27
2023-06-18T00:56:53.725Z,99104.54
2023-06-18T00:59:24.105Z,99104.61
2023-06-18T01:01:56.533Z,99094.96
2023-06-18T01:04:28.774Z,99093.64
2023-06-18T01:06:57.540Z,99093.07
2023-06-18T01:09:27.038Z,99091.83
2023-06-18T01:11:55.470Z,99090.29
2023-06-18T01:14:24.408Z,99092.39
2023-06-18T01:16:52.850Z,99089.77
2023-06-18T01:19:53.373Z,99095.19
2023-06-18T01:22:31.673Z,99095.04
2023-06-18T01:25:00.377Z,99096.94
2023-06-18T01:27:29.341Z,99097.77
2023-06-18T01:29:57.916Z,99099.50
2023-06-18T01:32:26.024Z,99099.88
2023-06-18T01:34:57.235Z,99101.33
2023-06-18T01:37:45.783Z,99098.89
2023-06-18T01:40:27.500Z,99097.95
2023-06-18T01:43:19.168Z,99099.23
2023-06-18T01:45:48.636Z,99100.67
2023-06-18T01:48:16.847Z,99098.27
2023-06-18T01:50:46.273Z,99103.04
2023-06-18T01:53:17.210Z,99101.36
2023-06-18T01:55:46.253Z,99098.54
2023-06-18T01:58:16.832Z,99098.13
2023-06-18T02:00:44.999Z,99095.81
2023-06-18T02:03:12.896Z,99098.21
2023-06-18T02:05:40.776Z,99093.09
2023-06-18T02:08:08.685Z,99089.48
2023-06-18T02:10:36.784Z,99091.88
2023-06-18T02:13:04.753Z,99092.56
2023-06-18T02:15:32.582Z,99100.26
2023-06-18T02:18:00.574Z,99102.64
2023-06-18T02:20:28.787Z,99105.70
2023-06-18T02:22:56.927Z,99108.30
2023-06-18T02:25:30.460Z,99109.61
2023-06-18T02:28:00.406Z,99109.35
2023-06-18T02:30:31.354Z,99109.86
2023-06-18T02:33:02.648Z,99110.06
2023-06-18T02:35:30.710Z,99112.34
2023-06-18T02:37:58.596Z,99112.67
2023-06-18T02:40:27.152Z,99112.79
2023-06-18T02:42:56.425Z,99113.25
2023-06-18T02:45:26.046Z,99114.08
2023-06-18T02:47:54.279Z,99113.01
2023-06-18T02:50:22.693Z,99117.67
2023-06-18T02:52:51.744Z,99118.28
2023-06-18T02:55:19.970Z,99120.63
2023-06-18T02:57:47.951Z,99121.18
2023-06-18T03:00:16.190Z,99124.29
2023-06-18T03:02:45.785Z,99133.67
2023-06-18T03:05:22.543Z,99139.86
2023-06-18T03:07:52.401Z,99137.16
2023-06-18T03:10:20.875Z,99137.59
2023-06-18T03:12:50.788Z,99141.59
2023-06-18T03:15:25.528Z,99143.89
2023-06-18T03:17:53.332Z,99146.04
2023-06-18T03:20:21.701Z,99148.74
2023-06-18T03:22:53.793Z,99150.07
2023-06-18T03:25:21.800Z,99150.15
2023-06-18T03:27:49.881Z,99155.20
2023-06-18T03:30:18.823Z,99160.52
2023-06-18T03:32:47.581Z,99160.46
2023-06-18T03:35:16.439Z,99160.61
2023-06-18T03:37:44.962Z,99159.87
2023-06-18T03:40:14.174Z,99159.66
2023-06-18T03:42:42.765Z,99161.83
2023-06-18T03:45:11.750Z,99161.28
2023-06-18T03:47:39.773Z,99161.58
2023-06-18T03:50:08.381Z,99163.37
2023-06-18T03:52:36.599Z,99172.40
2023-06-18T03:55:05.626Z,99177.52
2023-06-18T03:57:34.171Z,99180.14
2023-06-18T04:00:02.515Z,99181.55
2023-06-18T04:02:40.565Z,99183.59
2023-06-18T04:05:10.342Z,99185.89
2023-06-18T04:07:38.628Z,99190.23
2023-06-18T04:10:07.418Z,99194.74
2023-06-18T04:12:35.404Z,99196.89
2023-06-18T04:15:04.153Z,99199.45
2023-06-18T04:17:42.954Z,99204.90
2023-06-18T04:20:13.634Z,99200.98
2023-06-18T04:22:41.988Z,99198.50
2023-06-18T04:25:11.308Z,99197.36
2023-06-18T04:27:40.883Z,99205.58
2023-06-18T04:30:09.516Z,99208.70
2023-06-18T04:32:39.271Z,99213.96
2023-06-18T04:35:07.793Z,99213.46
2023-06-18T04:37:37.732Z,99215.38
2023-06-18T04:40:06.940Z,99214.11
2023-06-18T04:42:36.547Z,99213.83
2023-06-18T04:45:05.428Z,99215.43
2023-06-18T04:47:34.150Z,99222.02
2023-06-18T04:50:03.838Z,99217.92
2023-06-18T04:52:32.608Z,99220.03
2023-06-18T04:55:00.709Z,99219.92
2023-06-18T04:57:29.180Z,99213.98
2023-06-18T04:59:57.557Z,99211.11
2023-06-18T05:02:26.248Z,99213.14
2023-06-18T05:04:54.224Z,99213.73
2023-06-18T05:07:22.772Z,99221.98
2023-06-18T05:09:51.156Z,99233.65
2023-06-18T05:12:19.201Z,99238.07
2023-06-18T05:14:47.568Z,99239.87
2023-06-18T05:17:15.612Z,99233.71
2023-06-18T05:19:43.696Z,99233.48
2023-06-18T05:22:11.761Z,99242.08
2023-06-18T05:24:41.503Z,99246.77
2023-06-18T05:27:09.623Z,99248.34
2023-06-18T05:29:39.205Z,99247.73
2023-06-18T05:32:08.503Z,99249.23
2023-06-18T05:34:36.989Z,99247.02
2023-06-18T05:37:05.602Z,99248.39
2023-06-18T05:39:33.680Z,99248.20
2023-06-18T05:42:01.693Z,99249.80
2023-06-18T05:44:29.677Z,99253.92
2023-06-18T05:46:57.744Z,99255.05
2023-06-18T05:49:27.421Z,99269.02
2023-06-18T05:51:55.584Z,99270.39
2023-06-18T05:54:23.969Z,99274.17
2023-06-18T05:56:53.140Z,99274.33
2023-06-18T05:59:22.656Z,99278.83
2023-06-18T06:01:56.502Z,99281.35
2023-06-18T06:04:25.091Z,99283.02
2023-06-18T06:06:53.169Z,99289.23
2023-06-18T06:09:21.277Z,99284.12
2023-06-18T06:11:49.715Z,99290.51
2023-06-18T06:14:17.949Z,99297.91
2023-06-18T06:16:47.066Z,99305.33
2023-06-18T06:19:15.184Z,99311.38
2023-06-18T06:21:43.061Z,99310.31
2023-06-18T06:24:11.057Z,99310.98
2023-06-18T06:26:38.880Z,99321.05
2023-06-18T06:29:07.560Z,99323.30
2023-06-18T06:31:35.501Z,99320.95
2023-06-18T06:34:03.729Z,99319.77
2023-06-18T06:36:31.759Z,99318.46
2023-06-18T06:38:59.977Z,99320.97
2023-06-18T06:41:28.147Z,99320.77
2023-06-18T06:43:56.200Z,99320.61
2023-06-18T06:46:43.048Z,99326.38
2023-06-18T06:49:37.348Z,99333.04
2023-06-18T06:52:25.899Z,99346.38
2023-06-18T06:54:56.196Z,99345.34
2023-06-18T06:57:24.537Z,99350.08
2023-06-18T06:59:52.681Z,99356.03
2023-06-18T07:02:20.641Z,99359.91
2023-06-18T07:04:50.081Z,99361.66
2023-06-18T07:07:18.166Z,99360.80
2023-06-18T07:09:46.273Z,99363.45
2023-06-18T07:12:14.309Z,99364.33
2023-06-18T07:14:42.302Z,99362.52
2023-06-18T07:17:10.368Z,99363.04
2023-06-18T07:19:38.464Z,99371.94
2023-06-18T07:22:06.357Z,99371.23
2023-06-18T07:24:34.565Z,99374.04
2023-06-18T07:27:03.185Z,99376.98
2023-06-18T07:29:31.596Z,99377.32
2023-06-18T07:32:00.267Z,99383.42
2023-06-18T07:34:28.270Z,99388.10
2023-06-18T07:36:56.662Z,99385.89
2023-06-18T07:39:24.641Z,99384.20
2023-06-18T07:41:53.142Z,99382.25
2023-06-18T07:44:21.172Z,99391.79
2023-06-18T07:46:49.604Z,99390.66
2023-06-18T07:49:18.230Z,99392.62
2023-06-18T07:51:46.278Z,99388.75
2023-06-18T07:54:14.116Z,99397.69
2023-06-18T07:56:42.002Z,99395.24
2023-06-18T07:59:10.135Z,99394.06
2023-06-18T08:01:38.134Z,99394.64
2023-06-18T08:04:06.277Z,99395.64
2023-06-18T08:06:34.187Z,99394.35
2023-06-18T08:09:02.045Z,99398.04
2023-06-18T08:11:30.125Z,99398.61
2023-06-18T08:13:57.989Z,99396.50
2023-06-18T08:16:26.787Z,99395.96
2023-06-18T08:18:54.900Z,99398.67
2023-06-18T08:21:23.565Z,99401.27
2023-06-18T08:23:52.290Z,99395.84
2023-06-18T08:26:20.676Z,99401.14
2023-06-18T08:28:49.211Z,99405.08
2023-06-18T08:31:17.127Z,99398.43
2023-06-18T08:33:45.278Z,99402.73
2023-06-18T08:36:13.250Z,99405.68
2023-06-18T08:38:41.192Z,99406.64
2023-06-18T08:41:11.234Z,99396.77
2023-06-18T08:43:39.605Z,99392.28
2023-06-18T08:46:12.776Z,99392.80
2023-06-18T08:49:00.664Z,99390.62
2023-06-18T08:51:28.624Z,99393.52
2023-06-18T08:54:08.230Z,99396.09
2023-06-18T08:56:38.844Z,99395.32
2023-06-18T08:59:06.854Z,99389.97
2023-06-18T09:01:34.824Z,99388.15
2023-06-18T09:04:02.841Z,99382.48
2023-06-18T09:06:30.903Z,99387.98
2023-06-18T09:09:01.913Z,99394.63
2023-06-18T09:11:36.717Z,99397.05
2023-06-18T09:14:05.314Z,99394.94
2023-06-18T09:16:33.408Z,99394.19
2023-06-18T09:19:04.019Z,99391.64
2023-06-18T09:21:40.812Z,99388.87
2023-06-18T09:24:10.939Z,99374.48
2023-06-18T09:26:38.874Z,99379.02
2023-06-18T09:29:07.156Z,99378.52
2023-06-18T09:31:36.294Z,99373.13
2023-06-18T09:34:24.662Z,99384.27
2023-06-18T09:36:52.732Z,99383.05
2023-06-18T09:39:24.001Z,99372.77
2023-06-18T09:41:53.481Z,99378.46
2023-06-18T09:44:22.301Z,99374.52
2023-06-18T09:46:52.432Z,99370.58
2023-06-18T09:49:21.296Z,99380.94
2023-06-18T09:51:50.815Z,99375.11
2023-06-18T09:54:19.189Z,99367.73
2023-06-18T09:56:59.160Z,99364.87
2023-06-18T09:59:27.539Z,99373.27
2023-06-18T10:01:58.650Z,99374.48
2023-06-18T10:04:27.126Z,99375.23
2023-06-18T10:06:59.836Z,99373.88
2023-06-18T10:09:36.694Z,99362.85
2023-06-18T10:12:06.116Z,99370.52
2023-06-18T10:14:34.660Z,99368.09
2023-06-18T10:17:24.802Z,99356.71
2023-06-18T10:20:10.577Z,99360.52
2023-06-18T10:22:47.037Z,99366.65
2023-06-18T10:25:15.133Z,99358.98
2023-06-18T10:27:43.422Z,99357.07
2023-06-18T10:30:12.284Z,99359.39
2023-06-18T10:32:40.365Z,99348.34
2023-06-18T10:35:09.878Z,99348.50
2023-06-18T10:37:38.008Z,99352.44
2023-06-18T10:40:06.919Z,99353.95
2023-06-18T10:42:36.182Z,99357.55
2023-06-18T10:45:12.401Z,99347.30
2023-06-18T10:47:41.177Z,99346.34
2023-06-18T10:50:09.298Z,99362.98
2023-06-18T10:52:38.813Z,99354.99
2023-06-18T10:55:17.063Z,99359.46
2023-06-18T10:57:45.158Z,99362.10
2023-06-18T11:00:16.988Z,99346.11
2023-06-18T11:02:46.062Z,99352.99
2023-06-18T11:05:37.836Z,99354.90
2023-06-18T11:08:07.974Z,99351.78
2023-06-18T11:10:39.802Z,99368.98
2023-06-18T11:13:09.038Z,99350.27
2023-06-18T11:15:37.987Z,99350.12
2023-06-18T11:18:06.001Z,99354.28
2023-06-18T11:20:36.028Z,99353.97
2023-06-18T11:23:05.357Z,99361.41
2023-06-18T11:25:33.465Z,99352.98
2023-06-18T11:28:03.635Z,99363.26
2023-06-18T11:30:35.286Z,99359.05
2023-06-18T11:33:03.782Z,99354.25
2023-06-18T11:35:32.212Z,99353.77
2023-06-18T11:38:00.749Z,99355.17
2023-06-18T11:40:28.795Z,99347.84
2023-06-18T11:42:56.921Z,99354.57
2023-06-18T11:45:25.470Z,99363.38
2023-06-18T11:47:54.500Z,99372.00
2023-06-18T11:50:23.757Z,99371.62
2023-06-18T11:52:52.047Z,99372.90
2023-06-18T11:55:21.023Z,99374.89
2023-06-18T11:57:49.153Z,99370.67
2023-06-18T12:00:17.623Z,99370.84
2023-06-18T12:02:46.301Z,99371.48
2023-06-18T12:05:14.544Z,99371.00
2023-06-18T12:07:44.220Z,99362.83
2023-06-18T12:10:13.081Z,99364.82
2023-06-18T12:13:03.685Z,99364.89
2023-06-18T12:15:38.663Z,99370.02
2023-06-18T12:18:14.294Z,99367.69
2023-06-18T12:20:42.508Z,99363.77
2023-06-18T12:23:11.768Z,99376.23
2023-06-18T12:25:39.774Z,99379.59
2023-06-18T12:28:08.461Z,99362.33
2023-06-18T12:30:38.929Z,99369.05
2023-06-18T12:33:11.338Z,99378.48
2023-06-18T12:35:43.378Z,99381.48
2023-06-18T12:38:11.770Z,99381.30
2023-06-18T12:40:57.388Z,99375.19
2023-06-18T12:43:25.532Z,99373.11
2023-06-18T12:45:54.352Z,99379.92
2023-06-18T12:48:26.652Z,99374.92
2023-06-18T12:50:56.328Z,99368.75
2023-06-18T12:53:26.081Z,99351.32
2023-06-18T12:56:18.417Z,99352.99
2023-06-18T12:58:46.699Z,99347.64
2023-06-18T13:01:15.123Z,99346.76
2023-06-18T13:03:43.838Z,99343.73
2023-06-18T13:06:12.926Z,99340.67
2023-06-18T13:08:41.326Z,99346.58
2023-06-18T13:11:09.418Z,99337.86
2023-06-18T13:13:37.430Z,99341.23
2023-06-18T13:16:05.752Z,99351.30
2023-06-18T13:18:34.059Z,99343.84
2023-06-18T13:21:04.120Z,99344.23
2023-06-18T13:23:32.309Z,99355.83
2023-06-18T13:26:00.790Z,99343.83
2023-06-18T13:28:29.164Z,99329.51
2023-06-18T13:30:58.696Z,99335.48
2023-06-18T13:33:27.247Z,99342.04
2023-06-18T13:35:55.512Z,99333.65
2023-06-18T13:38:23.472Z,99339.96
2023-06-18T13:40:52.890Z,99335.77
2023-06-18T13:43:21.022Z,99328.56
2023-06-18T13:45:49.286Z,99337.14
2023-06-18T13:48:17.624Z,99339.90
2023-06-18T13:50:45.892Z,99338.02
2023-06-18T13:53:14.230Z,99337.71
2023-06-18T13:55:42.827Z,99330.21
2023-06-18T13:58:11.377Z,99323.45
2023-06-18T14:00:39.781Z,99331.83
2023-06-18T14:03:08.137Z,99329.41
2023-06-18T14:05:37.420Z,99331.44
2023-06-18T14:08:06.072Z,99326.83
2023-06-18T14:10:34.318Z,99325.61
2023-06-18T14:13:02.453Z,99335.77
2023-06-18T14:15:30.774Z,99341.86
2023-06-18T14:17:59.485Z,99334.55
2023-06-18T14:20:27.654Z,99339.64
2023-06-18T14:22:55.862Z,99340.98
2023-06-18T14:25:24.386Z,99340.27
2023-06-18T14:27:52.775Z,99347.25
2023-06-18T14:30:21.252Z,99343.27
2023-06-18T14:32:49.408Z,99339.00
2023-06-18T14:35:17.780Z,99332.34
2023-06-18T14:37:46.047Z,99330.35
2023-06-18T14:40:14.737Z,99341.77
2023-06-18T14:42:43.839Z,99348.66
2023-06-18T14:45:12.451Z,99341.52
2023-06-18T14:47:42.562Z,99342.23
2023-06-18T14:50:11.968Z,99347.83
2023-06-18T14:52:40.092Z,99334.79
2023-06-18T14:55:08.865Z,99333.54
2023-06-18T14:57:38.082Z,99347.39
2023-06-18T15:00:07.917Z,99348.52
2023-06-18T15:02:36.669Z,99349.48
2023-06-18T15:05:05.988Z,99350.92
2023-06-18T15:07:34.770Z,99355.79
2023-06-18T15:10:02.753Z,99363.31
2023-06-18T15:12:30.704Z,99357.89
2023-06-18T15:14:59.159Z,99347.89
2023-06-18T15:17:27.226Z,99352.44
2023-06-18T15:19:58.772Z,99357.23
2023-06-18T15:22:26.944Z,99350.52
2023-06-18T15:24:55.574Z,99364.83
2023-06-18T15:27:23.829Z,99362.26
2023-06-18T15:29:53.439Z,99362.73
2023-06-18T15:32:21.909Z,99371.45
2023-06-18T15:34:50.441Z,99376.47
2023-06-18T15:37:18.911Z,99376.96
2023-06-18T15:39:50.004Z,99389.17
2023-06-18T15:42:18.815Z,99396.98
2023-06-18T15:44:47.048Z,99409.89
2023-06-18T15:47:14.921Z,99415.88
2023-06-18T15:49:42.972Z,99419.50
2023-06-18T15:52:11.323Z,99421.70
2023-06-18T15:54:39.282Z,99422.54
2023-06-18T15:57:07.379Z,99431.14
2023-06-18T15:59:35.385Z,99432.50
2023-06-18T16:02:03.606Z,99440.80
2023-06-18T16:04:31.819Z,99453.91
2023-06-18T16:06:59.880Z,99455.54
2023-06-18T16:09:27.914Z,99457.95
2023-06-18T16:11:56.163Z,99464.27
2023-06-18T16:14:24.168Z,99466.21
2023-06-18T16:16:52.192Z,99471.52
2023-06-18T16:19:20.330Z,99479.10
2023-06-18T16:21:48.502Z,99484.25
2023-06-18T16:24:17.763Z,99484.25
2023-06-18T16:26:45.941Z,99489.16
2023-06-18T16:29:15.403Z,99492.70
2023-06-18T16:31:44.064Z,99498.73
2023-06-18T16:34:12.221Z,99497.60
2023-06-18T16:36:42.727Z,99500.38
2023-06-18T16:39:12.122Z,99503.73
2023-06-18T16:41:40.662Z,99501.84
2023-06-18T16:44:08.739Z,99501.53
2023-06-18T16:46:36.908Z,99503.63
2023-06-18T16:49:05.113Z,99505.92
2023-06-18T16:51:34.622Z,99509.54
2023-06-18T16:54:04.957Z,99507.98
2023-06-18T16:56:33.064Z,99506.63
2023-06-18T16:59:01.492Z,99505.02
2023-06-18T17:01:30.091Z,99508.81
2023-06-18T17:03:59.815Z,99512.02
2023-06-18T17:06:28.178Z,99519.50
2023-06-18T17:08:56.998Z,99521.84
2023-06-18T17:11:26.030Z,99527.52
2023-06-18T17:13:55.121Z,99527.95
2023-06-18T17:16:24.117Z,99529.61
2023-06-18T17:18:52.468Z,99530.58
2023-06-18T17:21:22.321Z,99530.90
2023-06-18T17:23:51.499Z,99533.36
2023-06-18T17:26:20.252Z,99537.55
2023-06-18T17:28:49.165Z,99540.12
2023-06-18T17:31:18.030Z,99543.58
2023-06-18T17:33:46.740Z,99549.88
2023-06-18T17:36:15.534Z,99552.23
2023-06-18T17:38:46.248Z,99558.85
2023-06-18T17:41:15.489Z,99562.52
2023-06-18T17:43:45.041Z,99566.97
2023-06-18T17:46:15.524Z,99574.63
2023-06-18T17:48:46.986Z,99574.34
2023-06-18T17:51:16.730Z,99576.98
2023-06-18T17:53:48.694Z,99581.20
2023-06-18T17:56:17.570Z,99582.05
2023-06-18T17:58:46.546Z,99591.05
2023-06-18T18:01:15.988Z,99591.55
2023-06-18T18:03:45.730Z,99597.81
2023-06-18T18:06:16.546Z,99597.94
2023-06-18T18:08:50.187Z,99600.48
2023-06-18T18:11:19.967Z,99605.41
2023-06-18T18:13:49.274Z,99610.16
2023-06-18T18:16:21.779Z,99615.79
2023-06-18T18:18:51.641Z,99613.52
2023-06-18T18:21:21.895Z,99616.85
2023-06-18T18:23:51.181Z,99620.98
2023-06-18T18:26:28.825Z,99624.52
2023-06-18T18:29:03.653Z,99624.31
2023-06-18T18:31:34.219Z,99620.98
2023-06-18T18:34:04.317Z,99627.80
2023-06-18T18:36:33.702Z,99630.52
2023-06-18T18:39:04.353Z,99627.55
2023-06-18T18:41:34.165Z,99628.75
2023-06-18T18:44:04.076Z,99629.67
2023-06-18T18:46:35.875Z,99633.36
2023-06-18T18:49:07.409Z,99639.50
2023-06-18T18:51:37.594Z,99641.73
2023-06-18T18:54:08.819Z,99643.89
2023-06-18T18:56:38.913Z,99645.76
2023-06-18T18:59:09.794Z,99645.42
2023-06-18T19:01:42.965Z,99649.32
2023-06-18T19:04:13.153Z,99651.79
2023-06-18T19:06:44.360Z,99654.42
2023-06-18T19:09:15.356Z,99656.27
2023-06-18T19:11:45.301Z,99658.33
2023-06-18T19:14:15.092Z,99654.92
2023-06-18T19:16:45.231Z,99657.86
2023-06-18T19:19:18.533Z,99658.63
2023-06-18T19:21:48.661Z,99660.20
2023-06-18T19:24:19.831Z,99658.52
2023-06-18T19:26:52.880Z,99661.49
2023-06-18T19:29:22.792Z,99668.82
2023-06-18T19:31:55.716Z,99670.80
2023-06-18T19:34:25.862Z,99671.74
2023-06-18T19:36:56.064Z,99674.09
2023-06-18T19:39:25.909Z,99677.17
2023-06-18T19:41:55.791Z,99676.83
2023-06-18T19:44:26.444Z,99681.04
2023-06-18T19:46:58.569Z,99679.95
2023-06-18T19:49:30.014Z,99680.86
2023-06-18T19:51:59.711Z,99680.58
2023-06-18T19:54:29.189Z,99684.48
2023-06-18T19:57:00.665Z,99682.86
2023-06-18T19:59:30.234Z,99687.23
2023-06-18T20:02:00.441Z,99690.20
2023-06-18T20:04:31.228Z,99691.80
2023-06-18T20:07:00.452Z,99692.53
2023-06-18T20:09:34.860Z,99691.17
2023-06-18T20:12:07.037Z,99694.91
2023-06-18T20:14:36.003Z,99692.98
2023-06-18T20:17:05.617Z,99694.61
2023-06-18T20:19:34.665Z,99694.98
2023-06-18T20:22:05.097Z,99693.99
2023-06-18T20:24:34.379Z,99694.88
2023-06-18T20:27:03.575Z,99705.23
2023-06-18T20:29:33.243Z,99698.90
2023-06-18T20:32:01.543Z,99697.83
2023-06-18T20:34:29.558Z,99700.46
2023-06-18T20:36:57.545Z,99697.97
2023-06-18T20:39:25.641Z,99704.13
2023-06-18T20:41:53.693Z,99702.07
2023-06-18T20:44:21.547Z,99703.20
2023-06-18T20:46:49.594Z,99702.88
2023-06-18T20:49:20.792Z,99699.20
2023-06-18T20:51:48.975Z,99700.44
2023-06-18T20:54:16.976Z,99702.59
2023-06-18T20:56:46.801Z,99706.36
2023-06-18T20:59:14.703Z,99716.33
2023-06-18T21:01:42.933Z,99715.91
2023-06-18T21:04:10.907Z,99718.46
2023-06-18T21:06:39.008Z,99721.13
2023-06-18T21:09:07.017Z,99718.70
2023-06-18T21:11:34.954Z,99718.81
2023-06-18T21:14:02.960Z,99717.89
2023-06-18T21:16:31.007Z,99720.14
2023-06-18T21:18:58.900Z,99718.91
2023-06-18T21:21:26.682Z,99720.42
2023-06-18T21:23:54.677Z,99721.79
2023-06-18T21:26:22.671Z,99723.09
2023-06-18T21:28:50.467Z,99717.60
2023-06-18T21:31:18.366Z,99721.84
2023-06-18T21:33:47.948Z,99719.61
2023-06-18T21:36:16.177Z,99719.36
2023-06-18T21:38:44.041Z,99721.20
2023-06-18T21:41:11.845Z,99720.12
2023-06-18T21:43:39.728Z,99724.20
2023-06-18T21:46:07.719Z,99727.09
2023-06-18T21:48:35.690Z,99724.09
2023-06-18T21:51:03.657Z,99723.59
2023-06-18T21:53:31.619Z,99721.80
2023-06-18T21:56:04.568Z,99720.00
2023-06-18T21:58:35.301Z,99721.13
2023-06-18T22:01:04.775Z,99720.17
2023-06-18T22:03:32.850Z,99717.17
2023-06-18T22:06:00.947Z,99720.84
2023-06-18T22:08:49.871Z,99714.86
2023-06-18T22:11:18.156Z,99716.50
2023-06-18T22:13:46.495Z,99718.04
2023-06-18T22:16:15.214Z,99715.06
2023-06-18T22:18:43.141Z,99709.27
2023-06-18T22:21:14.141Z,99710.83
2023-06-18T22:23:42.056Z,99708.55
2023-06-18T22:26:10.024Z,99709.60
2023-06-18T22:28:37.900Z,99709.15
2023-06-18T22:31:05.777Z,99708.20
2023-06-18T22:33:33.688Z,99703.45
2023-06-18T22:36:01.556Z,99704.39
2023-06-18T22:38:30.266Z,99707.58
2023-06-18T22:40:58.648Z,99704.72
2023-06-18T22:43:26.579Z,99704.16
2023-06-18T22:45:54.542Z,99708.47
2023-06-18T22:48:22.541Z,99704.98
2023-06-18T22:50:50.463Z,99709.64
2023-06-18T22:53:18.429Z,99712.15
2023-06-18T22:55:46.567Z,99708.60
2023-06-18T22:58:14.393Z,99708.61
2023-06-18T23:00:42.448Z,99710.90
2023-06-18T23:03:10.627Z,99712.88
2023-06-18T23:05:39.012Z,99715.88
2023-06-18T23:08:06.975Z,99714.50
2023-06-18T23:10:38.117Z,99711.30
2023-06-18T23:13:06.288Z,99703.39
2023-06-18T23:15:34.608Z,99698.71
2023-06-18T23:18:03.054Z,99694.04
2023-06-18T23:20:31.075Z,99692.25
2023-06-18T23:22:58.882Z,99690.80
2023-06-18T23:25:26.727Z,99688.64
2023-06-18T23:27:54.630Z,99682.98
2023-06-18T23:30:22.822Z,99677.66
2023-06-18T23:32:50.974Z,99674.04
2023-06-18T23:35:18.850Z,99669.67
2023-06-18T23:37:46.657Z,99665.71
2023-06-18T23:40:14.717Z,99655.61
2023-06-18T23:42:42.572Z,99657.73
2023-06-18T23:45:10.921Z,99651.06
2023-06-18T23:47:38.734Z,99650.16
2023-06-18T23:50:07.593Z,99644.73
2023-06-18T23:52:35.451Z,99637.66
2023-06-18T23:55:03.312Z,99635.71
2023-06-18T23:57:31.203Z,99636.05
2023-06-18T23:59:59.062Z,99636.84
